Time;durP1;ratioP1;P1;durP2;ratioP2;P2;SDS_P1;SDS_P2;PMS_P1;PMS_P2;Temp;Humidity;BMP_temperature;BMP_pressure;BME280_temperature;BME280_humidity;BME280_pressure;Samples;Min_cycle;Max_cycle;Signal;HPM_P1;HPM_P2
2022/06/16 00:00:55;;;;;;;2.63;2.43;;;16.20;99.90;;;;;;5056360;28;20773;-69
2022/06/16 00:03:20;;;;;;;3.10;2.67;;;16.20;99.90;;;;;;5056287;28;20163;-69
2022/06/16 00:05:46;;;;;;;2.07;1.77;;;16.10;99.90;;;;;;5055832;28;20178;-69
2022/06/16 00:08:14;;;;;;;2.50;2.30;;;16.00;99.90;;;;;;5055764;28;20309;-68
2022/06/16 00:13:28;;;;;;;4.00;2.73;;;16.00;99.90;;;;;;5055300;28;20452;-68
2022/06/16 00:15:53;;;;;;;2.03;1.83;;;15.90;99.90;;;;;;5055144;28;20413;-68
2022/06/16 00:18:19;;;;;;;2.40;2.20;;;15.90;99.90;;;;;;5055766;28;20394;-68
2022/06/16 00:20:45;;;;;;;4.80;2.80;;;15.90;99.90;;;;;;5055701;28;20266;-69
2022/06/16 00:23:10;;;;;;;2.70;2.30;;;15.80;99.90;;;;;;5055616;28;20178;-68
2022/06/16 00:25:36;;;;;;;3.50;2.40;;;15.80;99.90;;;;;;5055453;28;20198;-68
2022/06/16 00:28:01;;;;;;;3.57;2.70;;;15.70;99.90;;;;;;5055075;28;20190;-68
2022/06/16 00:30:27;;;;;;;3.03;2.73;;;15.70;99.90;;;;;;5055073;28;20248;-68
2022/06/16 00:32:52;;;;;;;4.63;2.40;;;15.60;99.90;;;;;;5055159;28;20202;-69
2022/06/16 00:35:18;;;;;;;3.07;2.43;;;15.60;99.90;;;;;;5055006;28;20206;-69
2022/06/16 00:37:44;;;;;;;3.40;2.17;;;15.50;99.90;;;;;;5055236;28;20168;-69
2022/06/16 00:40:10;;;;;;;2.30;2.10;;;15.50;99.90;;;;;;5055129;28;20661;-68
2022/06/16 00:42:36;;;;;;;2.33;2.13;;;15.40;99.90;;;;;;5055150;28;20198;-69
2022/06/16 00:45:02;;;;;;;2.70;2.50;;;15.40;99.90;;;;;;5055115;28;20907;-69
2022/06/16 00:47:30;;;;;;;2.80;2.60;;;15.30;99.90;;;;;;5055196;28;20903;-69
2022/06/16 00:50:03;;;;;;;2.73;2.03;;;15.30;99.90;;;;;;5054998;28;20409;-69
2022/06/16 00:52:32;;;;;;;2.03;1.93;;;15.20;99.90;;;;;;5054946;28;20559;-69
2022/06/16 00:54:58;;;;;;;3.90;2.00;;;15.10;99.90;;;;;;5054818;28;20425;-69
2022/06/16 00:57:28;;;;;;;2.90;2.00;;;15.10;99.90;;;;;;5055147;28;20398;-70
2022/06/16 00:59:56;;;;;;;2.30;1.90;;;15.00;99.90;;;;;;5057703;28;20171;-70
2022/06/16 01:02:24;;;;;;;2.80;2.37;;;15.00;99.90;;;;;;5054675;28;20425;-69
2022/06/16 01:04:52;;;;;;;2.13;1.77;;;14.90;99.90;;;;;;5052976;28;20409;-68
2022/06/16 01:07:23;;;;;;;2.67;2.47;;;14.90;99.90;;;;;;5054981;28;20441;-69
2022/06/16 01:09:49;;;;;;;2.30;2.07;;;14.90;99.90;;;;;;5054640;28;20409;-69
2022/06/16 01:15:26;;;;;;;3.37;2.00;;;14.80;99.90;;;;;;5054733;28;20388;-69
2022/06/16 01:18:11;;;;;;;2.13;1.93;;;14.80;99.90;;;;;;5054659;28;20392;-69
2022/06/16 01:21:10;;;;;;;3.10;2.23;;;14.70;99.90;;;;;;5054604;28;20479;-69
2022/06/16 01:24:12;;;;;;;3.60;2.60;;;14.70;99.90;;;;;;5054395;28;20463;-69
2022/06/16 01:26:53;;;;;;;3.10;2.20;;;14.70;99.90;;;;;;5005885;28;20937;-68
2022/06/16 01:29:19;;;;;;;6.63;2.80;;;14.70;99.90;;;;;;5054776;28;20445;-69
2022/06/16 01:32:13;;;;;;;2.53;2.33;;;14.60;99.90;;;;;;5036552;28;20790;-68
2022/06/16 01:34:52;;;;;;;5.40;2.77;;;14.60;99.90;;;;;;5040448;28;20271;-68
2022/06/16 01:38:00;;;;;;;3.20;2.40;;;14.50;99.90;;;;;;5035782;28;20409;-68
2022/06/16 01:40:46;;;;;;;3.20;2.40;;;14.50;99.90;;;;;;5043373;28;20818;-69
2022/06/16 01:43:15;;;;;;;2.53;2.30;;;14.40;99.90;;;;;;5060709;28;20710;-69
2022/06/16 01:45:59;;;;;;;7.40;2.53;;;14.40;99.90;;;;;;5061089;28;20402;-70
2022/06/16 01:48:28;;;;;;;2.53;2.33;;;14.30;99.90;;;;;;5061666;28;20462;-69
2022/06/16 01:51:12;;;;;;;2.93;2.60;;;14.30;99.90;;;;;;5061766;28;20432;-69
2022/06/16 01:53:37;;;;;;;3.17;2.90;;;14.30;99.90;;;;;;5061450;28;20540;-69
2022/06/16 01:56:18;;;;;;;3.37;2.83;;;14.20;99.90;;;;;;5060453;28;20483;-69
2022/06/16 01:58:49;;;;;;;2.60;2.40;;;14.20;99.90;;;;;;5054197;28;20151;-69
2022/06/16 02:01:18;;;;;;;4.53;2.50;;;14.20;99.90;;;;;;5053296;28;20503;-69
2022/06/16 02:03:48;;;;;;;2.87;2.67;;;14.20;99.90;;;;;;5053291;28;20455;-69
2022/06/16 02:06:32;;;;;;;3.40;2.87;;;14.20;99.90;;;;;;5053082;28;20404;-68
2022/06/16 02:09:09;;;;;;;2.60;2.40;;;14.20;99.90;;;;;;5053222;28;20806;-69
2022/06/16 02:11:36;;;;;;;4.30;2.77;;;14.20;99.90;;;;;;5053164;28;21008;-69
2022/06/16 02:14:09;;;;;;;2.87;2.67;;;14.20;99.90;;;;;;5035268;28;20468;-68
2022/06/16 02:16:37;;;;;;;3.17;2.97;;;14.20;99.90;;;;;;5052818;28;20398;-68
2022/06/16 02:19:08;;;;;;;2.50;2.30;;;14.10;99.90;;;;;;5054024;28;20464;-71
2022/06/16 02:21:39;;;;;;;2.90;2.60;;;14.10;99.90;;;;;;5053635;28;20504;-71
2022/06/16 02:24:08;;;;;;;2.93;2.73;;;14.00;99.90;;;;;;5053497;28;20773;-68
2022/06/16 02:26:34;;;;;;;3.10;2.87;;;14.10;99.90;;;;;;5053268;28;20413;-69
2022/06/16 02:29:19;;;;;;;2.80;2.60;;;14.10;99.90;;;;;;5053389;28;20500;-69
2022/06/16 02:32:03;;;;;;;4.93;3.07;;;14.10;99.90;;;;;;5053060;28;20425;-69
2022/06/16 02:34:56;;;;;;;2.50;2.30;;;14.00;99.90;;;;;;5053169;28;20409;-69
2022/06/16 02:37:24;;;;;;;3.17;2.87;;;14.00;99.90;;;;;;5052576;28;20432;-70
2022/06/16 02:40:08;;;;;;;3.10;2.80;;;14.00;99.90;;;;;;5052383;28;20451;-67
2022/06/16 02:42:59;;;;;;;6.03;2.40;;;14.00;99.90;;;;;;5052297;28;21005;-69
2022/06/16 02:45:53;;;;;;;4.37;2.53;;;14.00;99.90;;;;;;5053387;28;20931;-68
2022/06/16 02:48:32;;;;;;;3.90;3.10;;;14.00;99.90;;;;;;5057601;28;20405;-68
2022/06/16 02:51:02;;;;;;;4.20;3.50;;;14.00;99.90;;;;;;5052730;28;20436;-68
2022/06/16 02:53:48;;;;;;;3.50;3.17;;;14.10;99.90;;;;;;5052496;28;20504;-68
2022/06/16 02:56:36;;;;;;;4.63;3.77;;;14.00;99.90;;;;;;5052233;28;20397;-68
2022/06/16 02:59:11;;;;;;;2.80;2.60;;;14.10;99.90;;;;;;5012929;28;20413;-69
2022/06/16 03:01:37;;;;;;;3.00;2.60;;;14.10;99.90;;;;;;5052268;28;20437;-69
2022/06/16 03:04:10;;;;;;;3.80;3.10;;;14.10;99.90;;;;;;5052406;28;20542;-69
2022/06/16 03:06:36;;;;;;;3.47;3.10;;;14.00;99.90;;;;;;5052352;28;20218;-69
2022/06/16 03:09:04;;;;;;;3.70;3.30;;;14.00;99.90;;;;;;5052350;28;20410;-69
2022/06/16 03:11:31;;;;;;;4.80;2.87;;;14.00;99.90;;;;;;5053313;28;20199;-69
2022/06/16 03:13:57;;;;;;;5.93;2.90;;;14.00;99.90;;;;;;5054254;28;20852;-69
2022/06/16 03:16:23;;;;;;;3.70;3.40;;;13.90;99.90;;;;;;5060464;28;20393;-69
2022/06/16 03:18:49;;;;;;;2.80;2.60;;;13.90;99.90;;;;;;5056638;28;20169;-70
2022/06/16 03:21:15;;;;;;;7.80;2.63;;;13.90;99.90;;;;;;5052235;28;20418;-68
2022/06/16 03:23:41;;;;;;;4.00;2.77;;;14.00;99.90;;;;;;5052052;28;20945;-69
2022/06/16 03:26:07;;;;;;;3.40;3.10;;;14.00;99.90;;;;;;5052173;28;20406;-68
2022/06/16 03:28:32;;;;;;;4.40;3.23;;;14.00;99.90;;;;;;5051204;28;20202;-69
2022/06/16 03:30:58;;;;;;;3.73;3.13;;;14.00;99.90;;;;;;5052014;28;20202;-70
2022/06/16 03:33:23;;;;;;;5.90;3.20;;;14.00;99.90;;;;;;5051934;28;20728;-69
2022/06/16 03:35:49;;;;;;;6.07;2.87;;;14.10;99.90;;;;;;5051984;28;20171;-70
2022/06/16 03:41:01;;;;;;;2.47;2.27;;;14.10;99.90;;;;;;5052023;28;20905;-69
2022/06/16 03:43:26;;;;;;;3.07;2.40;;;14.10;99.90;;;;;;5051599;28;20401;-68
2022/06/16 03:45:52;;;;;;;2.77;2.40;;;14.10;99.90;;;;;;5051782;28;20617;-69
2022/06/16 03:48:18;;;;;;;7.40;2.40;;;14.10;99.90;;;;;;5033953;28;20174;-68
2022/06/16 03:50:43;;;;;;;4.13;3.13;;;14.10;99.90;;;;;;5051659;28;20187;-68
2022/06/16 03:53:09;;;;;;;4.20;2.60;;;14.10;99.90;;;;;;5051649;28;20390;-69
2022/06/16 03:55:35;;;;;;;3.10;2.40;;;14.10;99.90;;;;;;5051703;28;20167;-69
2022/06/16 03:58:00;;;;;;;3.40;3.10;;;14.20;99.90;;;;;;5051720;28;20397;-69
2022/06/16 04:00:26;;;;;;;3.73;3.23;;;14.30;99.90;;;;;;5051559;28;20171;-68
2022/06/16 04:03:59;;;;;;;3.83;2.97;;;14.40;99.90;;;;;;5051800;28;20581;-69
2022/06/16 04:05:38;;;;;;;3.33;3.03;;;14.50;99.90;;;;;;5051281;28;20413;-69
2022/06/16 04:08:05;;;;;;;3.43;3.13;;;14.50;99.90;;;;;;5051405;28;20413;-70
2022/06/16 04:10:30;;;;;;;3.87;2.80;;;14.60;99.90;;;;;;5051373;28;20512;-69
2022/06/16 04:12:56;;;;;;;9.67;3.13;;;14.80;99.90;;;;;;5051178;28;20863;-68
2022/06/16 04:15:21;;;;;;;2.67;2.47;;;15.00;99.90;;;;;;5051323;28;20167;-69
2022/06/16 04:17:47;;;;;;;5.83;2.90;;;15.60;99.90;;;;;;5051382;28;20173;-69
2022/06/16 04:20:12;;;;;;;3.07;2.53;;;15.70;99.90;;;;;;5051378;28;20262;-70
2022/06/16 04:22:38;;;;;;;3.37;2.77;;;15.40;99.90;;;;;;5051734;28;20598;-71
2022/06/16 04:25:06;;;;;;;3.40;2.97;;;15.20;99.90;;;;;;5051601;28;20194;-69
2022/06/16 04:27:32;;;;;;;2.70;2.50;;;15.20;99.90;;;;;;5051609;28;20512;-69
2022/06/16 04:29:58;;;;;;;2.77;2.57;;;15.00;99.90;;;;;;5051731;28;20500;-68
2022/06/16 04:32:23;;;;;;;3.10;2.90;;;14.90;99.90;;;;;;5051655;28;20543;-69
2022/06/16 04:34:49;;;;;;;2.93;2.73;;;15.00;99.90;;;;;;5057253;28;20167;-68
2022/06/16 04:37:15;;;;;;;6.30;3.73;;;14.90;99.90;;;;;;5055681;28;20238;-69
2022/06/16 04:39:40;;;;;;;4.03;2.87;;;15.10;99.90;;;;;;5054456;28;20163;-69
2022/06/16 04:42:06;;;;;;;3.20;2.80;;;15.90;99.90;;;;;;5054979;28;20202;-69
2022/06/16 04:44:34;;;;;;;3.03;2.83;;;16.40;99.90;;;;;;5055412;28;20168;-69
2022/06/16 04:47:01;;;;;;;3.83;3.20;;;16.70;99.90;;;;;;5054938;28;20518;-69
2022/06/16 04:49:28;;;;;;;3.13;2.93;;;17.10;99.90;;;;;;5055024;28;20792;-69
2022/06/16 04:51:53;;;;;;;9.70;3.43;;;16.90;99.90;;;;;;5054815;28;20454;-69
2022/06/16 04:54:19;;;;;;;8.90;2.30;;;16.60;99.90;;;;;;5054776;28;20884;-69
2022/06/16 04:56:44;;;;;;;3.93;2.87;;;16.50;99.90;;;;;;5054617;28;20730;-69
2022/06/16 04:59:10;;;;;;;6.50;2.50;;;16.70;99.90;;;;;;5054888;28;20248;-69
2022/06/16 05:01:36;;;;;;;3.20;2.90;;;16.90;99.90;;;;;;5054598;28;20197;-70
2022/06/16 05:04:01;;;;;;;3.20;2.13;;;17.00;99.90;;;;;;5054835;28;20163;-68
2022/06/16 05:06:27;;;;;;;3.97;2.67;;;17.30;99.90;;;;;;5054426;28;20528;-69
2022/06/16 05:08:53;;;;;;;3.33;2.33;;;17.70;99.90;;;;;;5054893;28;20598;-69
2022/06/16 05:11:19;;;;;;;2.57;2.37;;;18.00;99.90;;;;;;5054522;28;20288;-69
2022/06/16 05:13:44;;;;;;;2.57;2.40;;;18.20;99.90;;;;;;5054618;28;20199;-69
2022/06/16 05:16:10;;;;;;;4.63;2.03;;;18.30;99.90;;;;;;5054814;28;20413;-69
2022/06/16 05:18:35;;;;;;;2.20;2.00;;;18.40;99.90;;;;;;5054704;28;20160;-68
2022/06/16 05:21:11;;;;;;;3.00;1.90;;;18.50;99.90;;;;;;5054710;28;20189;-68
2022/06/16 05:23:36;;;;;;;1.93;1.83;;;18.80;99.90;;;;;;5054602;28;20548;-68
2022/06/16 05:26:03;;;;;;;2.43;1.70;;;18.90;99.90;;;;;;5054447;28;20409;-68
2022/06/16 05:28:30;;;;;;;2.27;1.90;;;19.30;99.90;;;;;;5054155;28;20172;-68
2022/06/16 05:30:56;;;;;;;2.20;2.00;;;18.80;99.90;;;;;;5053993;28;20432;-68
2022/06/16 05:33:22;;;;;;;5.77;2.07;;;18.60;99.90;;;;;;5054182;28;20815;-69
2022/06/16 05:36:12;;;;;;;3.63;2.30;;;18.90;99.90;;;;;;5054166;28;20167;-69
2022/06/16 05:38:38;;;;;;;2.53;2.33;;;19.30;99.90;;;;;;5054327;28;20708;-68
2022/06/16 05:41:07;;;;;;;2.37;2.10;;;19.50;99.90;;;;;;5076535;22;20474;-70
2022/06/16 05:43:33;;;;;;;3.10;2.00;;;19.60;99.90;;;;;;5053387;28;20413;-69
2022/06/16 05:45:59;;;;;;;2.00;1.40;;;20.20;99.90;;;;;;5053732;28;20413;-70
2022/06/16 05:48:25;;;;;;;2.07;1.83;;;20.20;99.90;;;;;;5053865;28;20401;-70
2022/06/16 05:50:51;;;;;;;2.03;1.63;;;20.10;99.90;;;;;;5052902;28;20390;-70
2022/06/16 05:53:17;;;;;;;2.67;1.80;;;19.90;99.90;;;;;;5053468;28;20893;-70
2022/06/16 05:55:43;;;;;;;5.47;2.17;;;19.70;99.90;;;;;;5053102;28;20408;-70
2022/06/16 05:58:08;;;;;;;2.27;2.07;;;19.60;99.90;;;;;;5053437;28;20405;-70
2022/06/16 06:00:34;;;;;;;2.03;1.87;;;19.30;99.90;;;;;;5053506;28;20165;-70
2022/06/16 06:03:01;;;;;;;2.27;2.07;;;19.50;99.90;;;;;;5053096;28;20192;-71
2022/06/16 06:05:28;;;;;;;2.30;1.93;;;19.30;99.90;;;;;;5053081;28;20170;-70
2022/06/16 06:16:25;;;;;;;1.90;1.80;;;20.20;99.90;;;;;;5053016;28;20965;-69
2022/06/16 06:18:55;;;;;;;2.10;1.83;;;20.90;99.90;;;;;;5052878;28;20387;-70
2022/06/16 06:21:58;;;;;;;4.63;2.20;;;21.10;99.90;;;;;;5053141;28;20419;-70
2022/06/16 06:24:07;;;;;;;2.53;1.93;;;21.70;99.90;;;;;;5052761;28;20416;-69
2022/06/16 06:26:33;;;;;;;2.53;1.80;;;21.80;99.90;;;;;;5052698;28;20405;-70
2022/06/16 06:28:59;;;;;;;2.67;2.47;;;22.30;99.90;;;;;;5052768;28;20245;-69
2022/06/16 06:31:24;;;;;;;2.50;1.80;;;22.00;99.90;;;;;;5052657;28;20563;-70
2022/06/16 06:33:50;;;;;;;1.93;1.73;;;22.10;99.90;;;;;;5052679;28;20629;-70
2022/06/16 06:36:15;;;;;;;2.03;1.87;;;21.60;99.90;;;;;;5052610;28;20185;-70
2022/06/16 06:38:41;;;;;;;2.43;1.73;;;21.60;99.90;;;;;;5052864;28;20267;-70
2022/06/16 06:41:07;;;;;;;1.93;1.60;;;21.60;99.90;;;;;;5052623;28;20233;-69
2022/06/16 06:43:32;;;;;;;5.03;1.83;;;21.50;99.90;;;;;;5052754;28;20599;-70
2022/06/16 06:45:58;;;;;;;5.77;2.10;;;21.10;99.90;;;;;;5053079;28;20260;-70
2022/06/16 06:48:24;;;;;;;1.97;1.77;;;21.20;99.90;;;;;;5052500;28;20172;-70
2022/06/16 06:50:49;;;;;;;1.90;1.80;;;20.70;99.90;;;;;;5052540;28;20167;-70
2022/06/16 06:53:15;;;;;;;2.70;1.60;;;20.90;99.90;;;;;;5052484;28;20200;-70
2022/06/16 06:55:45;;;;;;;4.40;2.20;;;21.00;99.90;;;;;;5052258;28;20214;-70
2022/06/16 06:58:19;;;;;;;2.50;1.63;;;21.50;99.90;;;;;;5052241;28;20243;-70
2022/06/16 07:00:44;;;;;;;2.23;1.87;;;21.90;99.90;;;;;;5052339;28;20454;-70
2022/06/16 07:03:10;;;;;;;3.80;2.00;;;22.40;99.90;;;;;;5052439;28;20441;-69
2022/06/16 07:05:37;;;;;;;2.57;1.80;;;23.30;99.90;;;;;;5052107;28;20180;-69
2022/06/16 07:08:04;;;;;;;2.60;2.07;;;23.40;99.90;;;;;;5052090;28;20226;-70
2022/06/16 07:10:29;;;;;;;2.30;1.70;;;23.80;99.90;;;;;;5052273;28;20411;-70
2022/06/16 07:12:55;;;;;;;2.17;1.97;;;23.20;99.90;;;;;;5052375;28;20449;-69
2022/06/16 07:15:21;;;;;;;2.17;1.97;;;23.40;99.90;;;;;;5051897;28;20177;-69
2022/06/16 07:17:46;;;;;;;2.07;1.70;;;23.40;99.90;;;;;;5051857;28;20723;-69
2022/06/16 07:20:15;;;;;;;1.77;1.67;;;23.40;99.60;;;;;;5051999;28;20170;-69
2022/06/16 07:22:41;;;;;;;4.13;1.80;;;23.30;99.60;;;;;;5051658;28;20703;-70
2022/06/16 07:25:07;;;;;;;1.60;1.40;;;23.50;99.90;;;;;;5051579;28;20416;-70
2022/06/16 07:27:33;;;;;;;2.17;1.57;;;23.20;99.90;;;;;;5051652;28;20192;-70
2022/06/16 07:29:58;;;;;;;1.93;1.77;;;23.40;99.90;;;;;;5051717;28;20181;-71
2022/06/16 07:32:24;;;;;;;2.70;1.87;;;22.80;99.80;;;;;;5051559;28;20223;-68
2022/06/16 07:34:50;;;;;;;3.93;2.13;;;22.60;99.90;;;;;;5051582;28;20168;-70
2022/06/16 07:37:16;;;;;;;3.73;1.70;;;22.50;99.90;;;;;;5051857;28;20974;-69
2022/06/16 07:39:42;;;;;;;1.50;1.30;;;22.90;99.90;;;;;;5051805;28;20690;-69
2022/06/16 07:42:08;;;;;;;2.53;1.40;;;23.30;99.90;;;;;;5051614;28;20657;-69
2022/06/16 07:44:34;;;;;;;3.93;1.60;;;23.70;98.90;;;;;;5051422;28;20168;-71
2022/06/16 07:47:00;;;;;;;1.53;1.40;;;23.80;98.80;;;;;;5051669;28;20776;-69
2022/06/16 07:49:27;;;;;;;2.03;1.50;;;23.40;99.10;;;;;;5051963;28;20416;-69
2022/06/16 07:51:55;;;;;;;1.90;1.40;;;23.10;99.50;;;;;;5051556;28;20231;-70
2022/06/16 07:54:21;;;;;;;3.57;2.00;;;23.00;99.30;;;;;;5051506;28;20452;-70
2022/06/16 07:56:47;;;;;;;1.97;1.70;;;23.20;99.50;;;;;;5051244;28;20925;-70
2022/06/16 07:59:13;;;;;;;2.43;1.57;;;23.60;98.70;;;;;;5051499;28;20165;-70
2022/06/16 08:01:39;;;;;;;1.40;1.30;;;24.30;97.40;;;;;;5051457;28;20423;-70
2022/06/16 08:04:05;;;;;;;1.60;1.50;;;24.60;97.10;;;;;;5051519;28;20452;-70
2022/06/16 08:06:33;;;;;;;1.30;1.13;;;25.00;95.60;;;;;;5051292;28;20174;-70
2022/06/16 08:08:59;;;;;;;1.50;1.40;;;24.40;96.00;;;;;;5051571;28;20925;-71
2022/06/16 08:14:09;;;;;;;1.93;1.60;;;24.30;96.30;;;;;;5053488;28;20212;-70
2022/06/16 08:16:35;;;;;;;3.93;1.83;;;24.30;95.50;;;;;;5055519;28;20417;-70
2022/06/16 08:19:02;;;;;;;2.77;1.60;;;24.80;95.80;;;;;;5056016;28;20170;-70
2022/06/16 08:21:28;;;;;;;1.60;1.50;;;25.30;94.90;;;;;;5056041;28;20433;-70
2022/06/16 08:23:54;;;;;;;2.30;1.60;;;25.70;94.40;;;;;;5055230;28;20424;-68
2022/06/16 08:26:20;;;;;;;3.50;1.63;;;25.70;94.10;;;;;;5055047;28;20463;-70
2022/06/16 08:28:47;;;;;;;2.07;1.40;;;25.80;93.30;;;;;;5055303;28;20174;-70
2022/06/16 08:31:12;;;;;;;2.97;1.80;;;25.90;93.30;;;;;;5055031;28;20484;-68
2022/06/16 08:33:39;;;;;;;1.43;1.33;;;25.20;93.90;;;;;;5055052;28;20476;-70
2022/06/16 08:36:06;;;;;;;2.00;1.57;;;25.80;93.10;;;;;;5054666;28;20190;-70
2022/06/16 08:38:32;;;;;;;2.67;1.33;;;26.70;91.60;;;;;;5054986;28;20458;-70
2022/06/16 08:41:12;;;;;;;1.57;1.47;;;26.70;91.60;;;;;;5057195;28;20480;-69
2022/06/16 08:43:56;;;;;;;2.50;1.30;;;26.40;91.30;;;;;;5058196;28;20220;-69
2022/06/16 08:46:25;;;;;;;2.60;1.57;;;26.50;90.70;;;;;;5059664;28;20455;-69
2022/06/16 08:49:01;;;;;;;1.40;1.20;;;26.10;91.10;;;;;;5059289;28;20408;-69
2022/06/16 08:51:55;;;;;;;2.00;1.40;;;26.70;90.10;;;;;;5054729;28;20837;-69
2022/06/16 08:54:20;;;;;;;2.00;1.40;;;26.70;90.90;;;;;;5054471;28;20449;-69
2022/06/16 08:56:46;;;;;;;1.73;1.50;;;27.40;88.30;;;;;;5054407;28;20482;-70
2022/06/16 08:59:59;;;;;;;1.73;1.53;;;26.60;89.50;;;;;;5054578;28;20195;-69
2022/06/16 09:02:34;;;;;;;1.20;1.10;;;26.40;89.70;;;;;;5032714;28;20198;-70
2022/06/16 09:05:09;;;;;;;2.10;1.13;;;27.20;87.20;;;;;;5054708;28;20446;-70
2022/06/16 09:07:49;;;;;;;2.63;1.47;;;27.40;86.00;;;;;;5054219;28;20423;-70
2022/06/16 09:10:23;;;;;;;2.23;1.23;;;27.60;84.60;;;;;;5054356;28;20393;-70
2022/06/16 09:13:17;;;;;;;1.27;1.17;;;27.40;85.00;;;;;;5054147;28;20856;-70
2022/06/16 09:15:56;;;;;;;1.30;1.20;;;27.30;84.40;;;;;;5054037;28;20404;-70
2022/06/16 09:18:52;;;;;;;1.40;1.30;;;26.90;82.40;;;;;;5054318;28;20488;-69
2022/06/16 09:21:40;;;;;;;3.20;1.10;;;26.60;86.20;;;;;;5053978;28;20832;-70
2022/06/16 09:24:32;;;;;;;3.33;1.77;;;27.60;82.90;;;;;;5054013;28;20409;-70
2022/06/16 09:27:14;;;;;;;3.00;1.30;;;27.40;84.40;;;;;;5053467;28;20466;-70
2022/06/16 09:29:51;;;;;;;1.33;1.23;;;27.50;83.00;;;;;;5053974;28;20406;-69
2022/06/16 09:32:26;;;;;;;1.77;1.57;;;26.90;82.20;;;;;;5053776;28;20809;-69
2022/06/16 09:35:02;;;;;;;1.90;1.40;;;26.70;82.60;;;;;;5053946;28;20404;-69
2022/06/16 09:37:43;;;;;;;1.50;1.37;;;27.00;83.20;;;;;;5054021;28;20397;-69
2022/06/16 09:40:26;;;;;;;1.43;1.20;;;26.50;83.90;;;;;;5053874;28;20412;-69
2022/06/16 09:42:59;;;;;;;3.90;2.90;;;26.40;84.40;;;;;;5053325;28;20452;-69
2022/06/16 09:45:31;;;;;;;2.23;1.70;;;26.60;83.60;;;;;;5035744;28;20417;-70
2022/06/16 09:48:08;;;;;;;1.70;1.60;;;26.70;82.70;;;;;;5053939;28;20406;-70
2022/06/16 09:50:46;;;;;;;1.90;1.60;;;26.90;83.90;;;;;;5053683;28;20507;-70
2022/06/16 09:53:15;;;;;;;1.70;1.17;;;26.70;83.80;;;;;;5053464;28;20487;-70
2022/06/16 09:56:09;;;;;;;1.50;1.40;;;26.70;84.70;;;;;;5053311;28;20405;-70
2022/06/16 09:59:07;;;;;;;1.93;1.50;;;26.50;84.10;;;;;;5035965;28;20409;-69
2022/06/16 10:01:42;;;;;;;1.87;1.77;;;26.90;81.80;;;;;;5053327;28;20466;-69
2022/06/16 10:04:08;;;;;;;2.00;1.47;;;27.80;80.90;;;;;;5053255;28;20803;-70
2022/06/16 10:07:15;;;;;;;3.47;1.33;;;27.40;79.10;;;;;;5053069;28;20408;-70
2022/06/16 10:09:59;;;;;;;2.10;1.70;;;27.30;76.50;;;;;;5053092;28;20245;-70
2022/06/16 10:12:46;;;;;;;1.73;1.63;;;26.80;78.00;;;;;;5052886;28;20508;-70
2022/06/16 10:15:15;;;;;;;2.60;1.40;;;26.50;80.30;;;;;;5052906;28;20433;-70
2022/06/16 10:17:43;;;;;;;1.50;1.40;;;26.30;79.60;;;;;;5053004;28;20417;-70
2022/06/16 10:20:11;;;;;;;2.17;1.60;;;26.20;79.60;;;;;;5052878;28;20404;-69
2022/06/16 10:22:39;;;;;;;2.73;1.43;;;26.00;79.80;;;;;;5052659;28;20478;-69
2022/06/16 10:25:19;;;;;;;1.60;1.50;;;25.70;82.20;;;;;;5052521;28;20447;-70
2022/06/16 10:27:49;;;;;;;2.23;1.60;;;26.10;81.80;;;;;;5052797;28;20419;-70
2022/06/16 10:30:33;;;;;;;2.23;1.90;;;25.50;81.40;;;;;;5052722;28;20441;-69
2022/06/16 10:33:24;;;;;;;1.70;1.60;;;25.40;81.90;;;;;;5052352;28;20504;-69
2022/06/16 10:36:11;;;;;;;1.63;1.53;;;25.70;81.90;;;;;;5052117;28;20408;-69
2022/06/16 10:38:40;;;;;;;1.90;1.57;;;25.50;81.20;;;;;;5052429;28;20409;-69
2022/06/16 10:41:33;;;;;;;2.20;1.87;;;25.30;81.60;;;;;;5052246;28;20446;-69
2022/06/16 10:44:02;;;;;;;2.57;1.63;;;26.00;80.20;;;;;;5052501;28;20906;-69
2022/06/16 10:46:31;;;;;;;1.60;1.50;;;25.60;79.90;;;;;;5052216;28;20417;-69
2022/06/16 10:49:00;;;;;;;1.50;1.33;;;25.40;81.90;;;;;;5052415;28;20486;-70
2022/06/16 10:51:28;;;;;;;4.23;1.60;;;25.20;81.50;;;;;;5052053;28;20430;-71
2022/06/16 10:54:31;;;;;;;3.63;1.53;;;25.30;82.60;;;;;;5052145;28;20573;-70
2022/06/16 10:57:17;;;;;;;1.70;1.60;;;25.20;82.00;;;;;;5052178;28;20416;-69
2022/06/16 10:59:49;;;;;;;3.33;1.80;;;25.40;82.50;;;;;;5052636;28;20411;-70
2022/06/16 11:02:26;;;;;;;1.50;1.40;;;25.10;82.90;;;;;;5052015;28;20427;-70
2022/06/16 11:04:57;;;;;;;1.43;1.33;;;25.10;82.80;;;;;;5052079;28;20743;-70
2022/06/16 11:07:24;;;;;;;1.53;1.43;;;24.70;83.80;;;;;;5052171;28;20414;-70
2022/06/16 11:09:51;;;;;;;2.20;1.73;;;24.60;83.30;;;;;;5052057;28;20403;-69
2022/06/16 11:12:21;;;;;;;2.07;1.97;;;24.40;84.90;;;;;;5051969;28;20471;-70
2022/06/16 11:14:54;;;;;;;3.17;1.67;;;24.60;85.60;;;;;;5051738;28;20819;-70
2022/06/16 11:17:27;;;;;;;1.40;1.30;;;24.60;85.30;;;;;;5052232;28;20418;-70
2022/06/16 11:20:12;;;;;;;2.03;1.83;;;24.10;85.80;;;;;;5051974;28;20423;-70
2022/06/16 11:22:41;;;;;;;1.40;1.30;;;24.20;85.50;;;;;;5033741;28;20445;-69
2022/06/16 11:25:26;;;;;;;1.80;1.70;;;24.20;86.50;;;;;;5051508;28;20514;-70
2022/06/16 11:27:59;;;;;;;1.90;1.73;;;24.60;86.90;;;;;;5051794;28;21039;-70
2022/06/16 11:30:43;;;;;;;3.23;1.90;;;24.30;86.50;;;;;;5051937;28;20968;-69
2022/06/16 11:36:42;;;;;;;2.23;1.60;;;24.00;87.80;;;;;;5051698;28;20447;-69
2022/06/16 11:39:35;;;;;;;1.97;1.50;;;23.70;87.50;;;;;;5051815;28;20907;-70
2022/06/16 11:42:01;;;;;;;2.10;2.00;;;23.40;89.20;;;;;;5057356;22;20834;-68
2022/06/16 11:44:51;;;;;;;2.33;1.77;;;23.40;88.40;;;;;;5049755;28;20438;-68
2022/06/16 11:47:26;;;;;;;2.03;1.90;;;23.60;87.90;;;;;;5051274;28;20160;-68
2022/06/16 11:50:13;;;;;;;1.63;1.53;;;24.10;86.50;;;;;;5051228;28;20416;-68
2022/06/16 11:52:57;;;;;;;1.60;1.50;;;24.10;85.40;;;;;;5051226;28;20456;-69
2022/06/16 11:55:45;;;;;;;4.03;1.67;;;24.00;84.10;;;;;;5051476;28;20431;-68
2022/06/16 11:58:13;;;;;;;2.00;1.90;;;23.90;84.80;;;;;;5051334;28;20710;-68
2022/06/16 12:00:50;;;;;;;1.97;1.43;;;23.50;86.50;;;;;;5051481;28;20428;-68
2022/06/16 12:03:15;;;;;;;1.67;1.57;;;23.90;86.50;;;;;;5051480;28;20429;-69
2022/06/16 12:05:52;;;;;;;1.33;1.23;;;24.00;85.00;;;;;;5051495;28;20418;-69
2022/06/16 12:08:47;;;;;;;2.53;1.33;;;24.00;84.90;;;;;;5051607;28;20183;-69
2022/06/16 12:11:21;;;;;;;4.13;1.57;;;24.00;84.60;;;;;;5051942;28;20395;-69
2022/06/16 12:14:11;;;;;;;1.93;1.73;;;23.70;85.00;;;;;;5054630;28;20452;-69
2022/06/16 12:17:09;;;;;;;1.80;1.70;;;23.50;86.10;;;;;;5053300;28;20408;-69
2022/06/16 12:20:05;;;;;;;1.40;1.30;;;23.30;85.90;;;;;;5051687;28;20432;-69
2022/06/16 12:22:45;;;;;;;1.70;1.60;;;23.40;86.30;;;;;;5051124;28;20425;-69
2022/06/16 12:25:28;;;;;;;3.07;1.70;;;23.40;86.40;;;;;;5051361;28;20394;-69
2022/06/16 12:28:08;;;;;;;2.20;1.83;;;23.60;85.70;;;;;;5050984;28;20493;-69
2022/06/16 12:30:59;;;;;;;4.13;2.20;;;23.60;85.70;;;;;;5051078;28;20410;-69
2022/06/16 12:33:28;;;;;;;1.93;1.70;;;23.80;85.80;;;;;;5042154;28;20528;-69
2022/06/16 12:36:15;;;;;;;1.67;1.53;;;23.80;86.10;;;;;;5050873;28;20801;-69
2022/06/16 12:38:54;;;;;;;2.37;2.00;;;23.80;85.40;;;;;;5050756;28;20935;-69
2022/06/16 12:41:29;;;;;;;2.20;2.00;;;23.80;84.90;;;;;;5050676;28;20398;-69
2022/06/16 12:44:01;;;;;;;1.70;1.50;;;24.20;85.10;;;;;;5050805;28;20450;-69
2022/06/16 12:46:42;;;;;;;1.90;1.80;;;24.40;84.10;;;;;;5050942;28;20482;-69
2022/06/16 12:49:22;;;;;;;2.30;1.83;;;24.10;84.20;;;;;;5050958;28;20407;-68
2022/06/16 12:51:55;;;;;;;1.73;1.63;;;23.90;84.30;;;;;;5051099;28;20504;-69
2022/06/16 12:54:29;;;;;;;2.10;1.77;;;24.00;84.10;;;;;;5051106;28;20442;-68
2022/06/16 12:57:01;;;;;;;2.07;1.50;;;24.20;84.60;;;;;;5051503;28;20487;-69
2022/06/16 12:59:41;;;;;;;1.47;1.37;;;24.30;83.60;;;;;;5051940;28;20817;-69
2022/06/16 13:02:11;;;;;;;1.80;1.70;;;24.20;82.50;;;;;;5054019;28;20521;-68
2022/06/16 13:04:37;;;;;;;2.10;2.00;;;24.10;83.20;;;;;;5053934;28;20403;-68
2022/06/16 13:07:12;;;;;;;2.27;1.63;;;24.20;82.90;;;;;;5054256;28;20418;-68
2022/06/16 13:09:39;;;;;;;1.80;1.70;;;24.30;82.60;;;;;;5054896;28;20222;-68
2022/06/16 13:12:12;;;;;;;2.77;1.97;;;24.90;83.00;;;;;;5054077;28;20494;-68
2022/06/16 13:14:59;;;;;;;3.10;1.30;;;25.10;81.80;;;;;;5053990;28;20463;-69
2022/06/16 13:17:28;;;;;;;3.23;1.63;;;25.10;81.70;;;;;;5053938;28;20433;-70
2022/06/16 13:20:02;;;;;;;1.87;1.50;;;25.40;80.40;;;;;;5054060;28;20964;-68
2022/06/16 13:22:41;;;;;;;1.70;1.60;;;25.00;80.30;;;;;;5054220;28;20427;-69
2022/06/16 13:25:47;;;;;;;2.00;1.80;;;24.50;82.30;;;;;;5053889;28;20407;-69
2022/06/16 13:28:35;;;;;;;1.97;1.60;;;24.20;81.70;;;;;;5052482;28;20416;-69
2022/06/16 13:31:10;;;;;;;4.03;1.50;;;24.20;79.80;;;;;;5054028;28;20411;-70
2022/06/16 13:34:10;;;;;;;2.07;1.37;;;24.40;80.50;;;;;;5053987;28;20543;-69
2022/06/16 13:36:35;;;;;;;1.53;1.30;;;24.80;80.70;;;;;;5054174;28;20409;-69
2022/06/16 13:39:05;;;;;;;5.20;1.80;;;24.60;80.50;;;;;;5053889;28;20399;-69